Time;durP1;ratioP1;P1;durP2;ratioP2;P2;SDS_P1;SDS_P2;PMS_P1;PMS_P2;Temp;Humidity;BMP_temperature;BMP_pressure;BME280_temperature;BME280_humidity;BME280_pressure;Samples;Min_cycle;Max_cycle;Signal;HPM_P1;HPM_P2
2023/06/04 00:00:47;;;;;;;5.30;4.80;;;16.10;99.30;;;;;;5051645;28;20521;-80
2023/06/04 00:03:13;;;;;;;7.37;4.87;;;16.20;99.30;;;;;;5052169;28;20172;-82
2023/06/04 00:05:38;;;;;;;5.63;4.87;;;16.10;99.30;;;;;;5053135;28;20643;-83
2023/06/04 00:08:04;;;;;;;6.23;4.70;;;16.10;99.40;;;;;;5056563;28;20190;-83
2023/06/04 00:10:31;;;;;;;5.30;4.90;;;16.00;99.60;;;;;;5055443;28;20214;-80
2023/06/04 00:12:56;;;;;;;6.03;5.10;;;15.90;99.70;;;;;;5055175;28;20205;-81
2023/06/04 00:15:22;;;;;;;5.77;4.87;;;16.00;99.80;;;;;;5055341;28;20213;-80
2023/06/04 00:17:48;;;;;;;6.27;5.00;;;16.00;99.70;;;;;;5038636;28;20175;-82
2023/06/04 00:20:14;;;;;;;5.77;5.20;;;16.10;99.60;;;;;;5055139;28;20569;-80
2023/06/04 00:22:41;;;;;;;5.60;4.77;;;16.20;99.60;;;;;;5055976;28;20243;-81
2023/06/04 00:25:09;;;;;;;5.67;4.70;;;16.30;99.40;;;;;;5057269;28;20233;-81
2023/06/04 00:27:35;;;;;;;5.10;4.70;;;16.10;99.50;;;;;;5057962;28;20257;-83
2023/06/04 00:30:01;;;;;;;6.87;4.90;;;16.10;99.70;;;;;;5056248;28;20642;-81
2023/06/04 00:32:27;;;;;;;7.83;4.80;;;16.00;99.70;;;;;;5055350;28;20684;-82
2023/06/04 00:34:57;;;;;;;5.50;5.00;;;16.00;99.80;;;;;;5055401;28;20263;-81
2023/06/04 00:37:23;;;;;;;4.97;4.27;;;15.90;99.90;;;;;;5055804;28;20169;-80
2023/06/04 00:39:50;;;;;;;5.33;4.90;;;15.90;99.90;;;;;;5055547;28;20585;-82
2023/06/04 00:42:16;;;;;;;5.47;4.90;;;15.90;99.90;;;;;;5055448;28;20508;-79
2023/06/04 00:44:44;;;;;;;6.07;4.70;;;16.00;99.90;;;;;;5055275;28;20671;-80
2023/06/04 00:47:14;;;;;;;5.50;5.00;;;16.00;99.90;;;;;;5036197;28;20268;-82
2023/06/04 00:49:41;;;;;;;4.93;4.53;;;15.90;99.90;;;;;;5054986;28;20274;-79
2023/06/04 00:52:09;;;;;;;5.40;4.90;;;16.00;99.90;;;;;;5020631;28;20221;-80
2023/06/04 00:54:36;;;;;;;5.30;4.80;;;15.90;99.90;;;;;;5055014;28;20200;-82
2023/06/04 00:57:02;;;;;;;7.20;4.90;;;16.00;99.90;;;;;;5056532;28;20209;-79
2023/06/04 00:59:32;;;;;;;5.93;4.77;;;16.00;99.90;;;;;;5042874;28;20194;-81
2023/06/04 01:02:14;;;;;;;5.10;4.67;;;16.00;99.90;;;;;;5063450;28;20559;-77
2023/06/04 01:05:09;;;;;;;5.63;5.10;;;16.00;99.90;;;;;;5064999;28;20172;-81
2023/06/04 01:07:36;;;;;;;4.93;4.47;;;16.00;99.90;;;;;;5059906;28;20154;-80
2023/06/04 01:10:02;;;;;;;5.40;4.90;;;16.00;99.90;;;;;;5054671;28;20168;-82
2023/06/04 01:12:28;;;;;;;4.93;4.57;;;16.10;99.80;;;;;;5056170;28;20204;-81
2023/06/04 01:14:54;;;;;;;5.37;4.77;;;16.10;99.70;;;;;;5057622;28;20173;-80
2023/06/04 01:17:29;;;;;;;6.57;4.90;;;16.10;99.70;;;;;;5054025;28;20260;-81
2023/06/04 01:20:00;;;;;;;4.83;4.43;;;16.10;99.70;;;;;;5054174;28;20243;-80
2023/06/04 01:22:51;;;;;;;5.47;4.97;;;16.00;99.70;;;;;;5054957;28;20499;-79
2023/06/04 01:25:39;;;;;;;5.57;4.60;;;16.00;99.90;;;;;;5054656;28;20530;-80
2023/06/04 01:28:07;;;;;;;5.93;4.77;;;16.00;99.80;;;;;;5054497;28;20167;-83
2023/06/04 01:30:36;;;;;;;5.57;4.93;;;15.90;99.90;;;;;;5056738;28;20199;-80
2023/06/04 01:33:03;;;;;;;5.67;5.10;;;15.90;99.90;;;;;;5058950;28;20167;-81
2023/06/04 01:35:32;;;;;;;5.70;5.10;;;16.00;99.90;;;;;;5054630;28;20179;-83
2023/06/04 01:37:58;;;;;;;4.93;4.53;;;16.00;99.90;;;;;;5054354;28;20651;-82
2023/06/04 01:40:25;;;;;;;4.70;4.17;;;16.00;99.70;;;;;;5055755;28;20207;-80
2023/06/04 01:42:51;;;;;;;5.97;4.77;;;16.00;99.90;;;;;;5056062;28;20183;-82
2023/06/04 01:45:17;;;;;;;5.13;4.47;;;16.00;99.70;;;;;;5057403;28;20168;-83
2023/06/04 01:47:43;;;;;;;5.33;4.57;;;16.00;99.70;;;;;;5054604;28;20168;-82
2023/06/04 01:50:12;;;;;;;5.13;4.70;;;16.00;99.70;;;;;;5053845;28;20220;-79
2023/06/04 01:52:40;;;;;;;5.73;5.23;;;16.00;99.60;;;;;;5054112;28;20203;-82
2023/06/04 01:55:08;;;;;;;6.93;4.80;;;16.10;99.70;;;;;;5054020;28;20723;-82
2023/06/04 01:57:38;;;;;;;6.60;5.03;;;16.10;99.60;;;;;;5053778;28;20241;-80
2023/06/04 02:00:08;;;;;;;5.87;5.20;;;15.90;99.60;;;;;;5036018;28;20623;-80
2023/06/04 02:02:35;;;;;;;5.67;5.17;;;16.10;99.70;;;;;;5054100;28;20715;-80
2023/06/04 02:05:01;;;;;;;6.40;4.67;;;16.10;99.60;;;;;;5054340;28;20249;-80
2023/06/04 02:07:27;;;;;;;5.10;4.70;;;16.10;99.60;;;;;;5053612;28;20643;-81
2023/06/04 02:09:53;;;;;;;5.20;4.80;;;16.10;99.50;;;;;;5053259;28;20177;-79
2023/06/04 02:12:18;;;;;;;6.80;5.10;;;16.10;99.50;;;;;;5035930;28;20225;-84
2023/06/04 02:14:47;;;;;;;5.43;4.93;;;16.10;99.40;;;;;;5053778;28;20270;-82
2023/06/04 02:17:13;;;;;;;5.83;4.93;;;16.10;99.40;;;;;;5053706;28;20179;-83
2023/06/04 02:19:44;;;;;;;5.90;5.10;;;16.10;99.60;;;;;;5070996;28;20156;-82
2023/06/04 02:22:16;;;;;;;5.20;4.80;;;16.10;99.60;;;;;;5071809;28;20168;-80
2023/06/04 02:24:42;;;;;;;6.57;5.97;;;16.10;99.60;;;;;;5072308;28;20156;-81
2023/06/04 02:27:11;;;;;;;6.20;5.47;;;16.10;99.60;;;;;;5072155;28;20631;-80
2023/06/04 02:29:40;;;;;;;5.57;5.07;;;16.10;99.70;;;;;;5072756;28;20227;-81
2023/06/04 02:32:06;;;;;;;5.20;4.73;;;16.10;99.70;;;;;;5072315;28;20199;-80
2023/06/04 02:34:33;;;;;;;5.50;4.57;;;16.00;99.70;;;;;;5066843;28;20174;-81
2023/06/04 02:37:00;;;;;;;4.97;4.53;;;16.10;99.80;;;;;;5057273;28;20180;-80
2023/06/04 02:39:25;;;;;;;6.50;5.20;;;16.10;99.90;;;;;;5055676;28;20263;-79
2023/06/04 02:41:51;;;;;;;5.50;5.00;;;16.00;99.90;;;;;;5058202;28;20184;-82
2023/06/04 02:44:17;;;;;;;5.43;4.73;;;16.00;99.90;;;;;;5057017;28;20622;-81
2023/06/04 02:46:43;;;;;;;7.00;5.00;;;16.00;99.90;;;;;;5056099;28;20615;-82
2023/06/04 02:49:13;;;;;;;5.50;5.00;;;15.90;99.90;;;;;;5053761;28;20653;-82
2023/06/04 02:51:40;;;;;;;4.90;4.50;;;15.90;99.90;;;;;;5056126;28;20658;-81
2023/06/04 02:54:06;;;;;;;5.30;4.90;;;15.90;99.90;;;;;;5035698;28;20704;-80
2023/06/04 02:56:31;;;;;;;5.57;4.97;;;15.90;99.90;;;;;;5052811;28;20177;-81
2023/06/04 02:58:57;;;;;;;5.27;4.80;;;15.90;99.90;;;;;;5052964;28;20206;-81
2023/06/04 03:01:24;;;;;;;5.97;5.40;;;16.00;99.90;;;;;;5053240;28;20503;-81
2023/06/04 03:03:50;;;;;;;5.30;4.80;;;15.90;99.90;;;;;;5054680;28;20236;-81
2023/06/04 03:06:18;;;;;;;4.37;4.07;;;15.80;99.90;;;;;;5055394;28;20183;-82
2023/06/04 03:08:43;;;;;;;5.77;5.13;;;15.80;99.90;;;;;;5056072;28;20179;-80
2023/06/04 03:11:09;;;;;;;5.93;4.87;;;15.90;99.90;;;;;;5052192;28;20551;-80
2023/06/04 03:13:35;;;;;;;5.23;4.83;;;15.80;99.90;;;;;;5051991;28;20175;-80
2023/06/04 03:16:02;;;;;;;6.43;4.67;;;15.90;99.90;;;;;;5052238;28;20188;-80
2023/06/04 03:18:32;;;;;;;6.63;5.13;;;15.80;99.90;;;;;;5055404;28;20180;-80
2023/06/04 03:20:59;;;;;;;5.50;5.03;;;15.80;99.90;;;;;;5054268;28;20166;-80
2023/06/04 03:23:25;;;;;;;5.60;5.10;;;15.80;99.90;;;;;;5052131;28;20225;-83
2023/06/04 03:25:50;;;;;;;5.50;5.00;;;15.90;99.90;;;;;;5051503;28;20263;-82
2023/06/04 03:28:16;;;;;;;5.63;4.90;;;15.80;99.90;;;;;;5052593;28;20177;-81
2023/06/04 03:30:42;;;;;;;5.50;5.07;;;15.80;99.90;;;;;;5053725;28;20197;-80
2023/06/04 03:33:09;;;;;;;5.77;5.00;;;15.90;99.90;;;;;;5051797;28;20275;-81
2023/06/04 03:35:35;;;;;;;6.00;4.90;;;15.90;99.90;;;;;;5034150;28;20566;-81
2023/06/04 03:38:01;;;;;;;7.07;5.30;;;15.90;99.90;;;;;;5052231;28;20182;-80
2023/06/04 03:40:26;;;;;;;6.80;4.80;;;15.90;99.90;;;;;;5055038;28;20180;-82
2023/06/04 03:42:52;;;;;;;6.07;5.37;;;15.90;99.90;;;;;;5057440;28;20188;-81
2023/06/04 03:45:18;;;;;;;7.80;5.67;;;15.80;99.90;;;;;;5055689;28;20573;-81
2023/06/04 03:47:44;;;;;;;6.13;5.13;;;15.80;99.90;;;;;;5037914;28;20184;-81
2023/06/04 03:50:10;;;;;;;7.57;5.17;;;15.80;99.90;;;;;;5055604;28;20719;-81
2023/06/04 03:52:36;;;;;;;5.53;5.03;;;15.80;99.90;;;;;;5055916;28;20255;-81
2023/06/04 03:55:02;;;;;;;6.00;5.40;;;15.80;99.90;;;;;;5056081;28;20177;-81
2023/06/04 03:57:28;;;;;;;5.47;4.97;;;15.90;99.90;;;;;;5056068;28;20697;-80
2023/06/04 03:59:54;;;;;;;8.03;5.30;;;16.00;99.90;;;;;;5055818;28;20251;-79
2023/06/04 04:02:19;;;;;;;6.23;5.63;;;16.10;99.90;;;;;;5055942;28;20531;-79
2023/06/04 04:04:45;;;;;;;7.83;5.13;;;16.10;99.90;;;;;;5055773;28;20172;-80
2023/06/04 04:07:11;;;;;;;6.57;5.10;;;16.10;99.90;;;;;;5055939;28;20183;-80
2023/06/04 04:09:37;;;;;;;5.50;5.00;;;16.10;99.90;;;;;;5055719;28;20627;-79
2023/06/04 04:12:06;;;;;;;6.10;5.50;;;16.10;99.90;;;;;;5057106;28;20211;-79
2023/06/04 04:14:32;;;;;;;6.00;5.17;;;16.00;99.90;;;;;;5071640;28;20197;-80
2023/06/04 04:16:57;;;;;;;5.10;4.63;;;16.10;99.90;;;;;;5065737;28;20177;-81
2023/06/04 04:19:23;;;;;;;5.60;5.10;;;16.20;99.90;;;;;;5057191;28;20178;-83
2023/06/04 04:21:49;;;;;;;5.13;4.73;;;16.20;99.90;;;;;;5039085;28;20553;-81
2023/06/04 04:24:27;;;;;;;5.50;4.73;;;16.30;99.90;;;;;;5055459;28;20172;-80
2023/06/04 04:26:54;;;;;;;5.60;5.10;;;16.30;99.90;;;;;;5055423;28;20177;-85
2023/06/04 04:29:24;;;;;;;7.90;5.60;;;16.40;99.90;;;;;;5040346;28;20187;-80
2023/06/04 04:31:57;;;;;;;5.80;5.20;;;16.40;99.90;;;;;;5055511;28;20303;-80
2023/06/04 04:34:25;;;;;;;6.07;5.53;;;16.30;99.90;;;;;;5054731;28;20229;-82
2023/06/04 04:36:56;;;;;;;9.07;5.20;;;16.30;99.90;;;;;;5055024;28;20188;-81
2023/06/04 04:39:25;;;;;;;6.80;5.00;;;16.30;99.90;;;;;;5055175;28;20484;-80
2023/06/04 04:41:51;;;;;;;5.53;5.03;;;16.40;99.90;;;;;;5054720;28;20196;-82
2023/06/04 04:44:17;;;;;;;5.30;4.80;;;16.50;99.90;;;;;;5055805;28;20249;-81
2023/06/04 04:46:43;;;;;;;4.90;4.50;;;16.50;99.90;;;;;;5055142;28;20258;-81
2023/06/04 04:49:09;;;;;;;5.90;5.10;;;16.50;99.90;;;;;;5054745;28;20220;-81
2023/06/04 04:51:35;;;;;;;7.50;5.33;;;16.50;99.90;;;;;;5054522;28;20619;-80
2023/06/04 04:54:01;;;;;;;7.87;5.20;;;16.30;99.80;;;;;;5035124;28;20175;-81
2023/06/04 04:56:27;;;;;;;5.03;4.63;;;16.60;99.60;;;;;;5059522;28;20183;-84
2023/06/04 04:58:54;;;;;;;5.33;4.83;;;16.70;99.70;;;;;;5056051;28;20173;-82
2023/06/04 05:01:20;;;;;;;5.13;4.73;;;16.70;99.60;;;;;;5054363;28;20180;-82
2023/06/04 05:03:45;;;;;;;6.13;5.63;;;16.80;99.70;;;;;;5054948;28;20662;-81
2023/06/04 05:06:11;;;;;;;5.67;5.17;;;16.80;99.80;;;;;;5061084;28;20222;-82
2023/06/04 05:08:37;;;;;;;5.47;5.03;;;16.80;99.70;;;;;;5066061;28;20177;-80
2023/06/04 05:11:03;;;;;;;5.60;5.07;;;16.90;99.60;;;;;;5059123;28;20225;-83
2023/06/04 05:13:28;;;;;;;5.43;5.03;;;17.00;99.70;;;;;;5055394;28;20209;-82
2023/06/04 05:15:54;;;;;;;5.03;4.63;;;17.00;99.50;;;;;;5055194;28;20195;-82
2023/06/04 05:18:28;;;;;;;5.10;4.67;;;16.90;99.50;;;;;;5057643;28;20176;-83
2023/06/04 05:20:59;;;;;;;6.80;5.17;;;17.00;99.40;;;;;;5054583;28;20162;-84
2023/06/04 05:23:26;;;;;;;7.00;5.30;;;17.10;99.40;;;;;;5054354;28;20207;-80
2023/06/04 05:25:52;;;;;;;6.47;5.23;;;17.20;99.20;;;;;;5053724;28;20186;-82
2023/06/04 05:28:20;;;;;;;5.90;5.07;;;17.30;99.20;;;;;;5053831;28;20197;-83
2023/06/04 05:30:48;;;;;;;8.23;5.07;;;17.30;99.10;;;;;;5053237;28;20215;-81
2023/06/04 05:33:23;;;;;;;5.27;4.77;;;17.30;98.80;;;;;;5053652;28;20643;-79
2023/06/04 05:35:49;;;;;;;5.40;4.90;;;17.30;99.00;;;;;;5035532;28;20178;-81
2023/06/04 05:38:25;;;;;;;5.63;5.23;;;17.50;99.10;;;;;;5019111;28;20183;-81
2023/06/04 05:40:52;;;;;;;6.23;5.67;;;17.40;99.40;;;;;;5053556;28;20255;-81
2023/06/04 05:43:18;;;;;;;7.17;5.57;;;17.40;99.30;;;;;;5053965;28;20309;-82
2023/06/04 05:45:43;;;;;;;5.23;4.83;;;17.20;99.60;;;;;;5036033;28;20267;-84
2023/06/04 05:48:09;;;;;;;6.43;5.30;;;17.40;99.80;;;;;;5053551;28;20205;-83
2023/06/04 05:50:35;;;;;;;6.20;5.60;;;17.30;99.70;;;;;;5052046;28;20666;-82
2023/06/04 05:53:01;;;;;;;6.40;5.40;;;17.40;99.50;;;;;;5053587;28;20198;-80
2023/06/04 05:55:28;;;;;;;6.03;5.53;;;17.50;99.60;;;;;;5053223;28;20638;-83
2023/06/04 05:57:54;;;;;;;5.67;5.13;;;17.40;99.60;;;;;;5053432;28;20258;-78
2023/06/04 06:00:21;;;;;;;6.20;5.70;;;17.30;99.50;;;;;;5053413;28;20164;-80
2023/06/04 06:02:50;;;;;;;5.90;4.93;;;17.30;99.60;;;;;;5053558;28;20175;-80
2023/06/04 06:05:17;;;;;;;5.27;4.77;;;17.50;99.60;;;;;;5053918;28;20624;-82
2023/06/04 06:07:44;;;;;;;5.70;5.20;;;17.50;99.60;;;;;;5056640;28;20168;-82
2023/06/04 06:10:09;;;;;;;5.83;5.23;;;17.50;99.40;;;;;;5053665;28;20168;-80
2023/06/04 06:12:35;;;;;;;5.33;4.93;;;17.60;99.00;;;;;;5053257;28;20199;-80
2023/06/04 06:15:01;;;;;;;5.73;5.23;;;17.70;99.30;;;;;;5052795;28;20183;-80
2023/06/04 06:17:28;;;;;;;5.70;5.13;;;17.70;98.90;;;;;;5053096;28;20259;-82
2023/06/04 06:19:55;;;;;;;7.33;5.67;;;17.80;99.10;;;;;;5052990;28;20516;-79
2023/06/04 06:22:22;;;;;;;5.47;5.00;;;17.70;98.80;;;;;;5052072;28;20193;-81
2023/06/04 06:24:50;;;;;;;6.43;5.30;;;17.80;98.80;;;;;;5054098;28;20730;-78
2023/06/04 06:27:17;;;;;;;5.60;4.93;;;18.00;98.40;;;;;;5053806;28;20249;-82
2023/06/04 06:29:43;;;;;;;5.53;4.93;;;18.10;98.20;;;;;;5052840;28;20187;-80
2023/06/04 06:32:10;;;;;;;6.33;4.90;;;18.10;98.60;;;;;;5054644;28;20208;-79
2023/06/04 06:34:37;;;;;;;5.80;5.10;;;18.30;98.10;;;;;;5054689;28;20168;-78
2023/06/04 06:37:02;;;;;;;5.50;5.00;;;18.30;98.30;;;;;;5053769;28;20180;-82
2023/06/04 06:39:28;;;;;;;5.87;5.23;;;18.30;98.30;;;;;;5054388;28;20369;-80
2023/06/04 06:41:54;;;;;;;5.47;4.97;;;18.40;98.00;;;;;;5035570;28;20286;-81
2023/06/04 06:44:20;;;;;;;5.27;4.87;;;18.60;98.10;;;;;;5053244;28;20590;-80
2023/06/04 06:46:48;;;;;;;5.87;5.27;;;18.80;98.20;;;;;;5052893;28;20172;-79
2023/06/04 06:49:15;;;;;;;5.37;4.53;;;19.10;97.90;;;;;;5052366;28;20683;-81
2023/06/04 06:51:40;;;;;;;5.90;4.90;;;19.50;97.90;;;;;;5052737;28;20226;-82
2023/06/04 06:54:08;;;;;;;5.70;4.60;;;19.60;97.50;;;;;;5053218;28;20172;-79
2023/06/04 06:56:34;;;;;;;5.23;4.83;;;19.50;97.40;;;;;;5053320;28;20172;-82
2023/06/04 06:59:00;;;;;;;5.63;4.83;;;19.60;97.50;;;;;;5052929;28;20281;-80
2023/06/04 07:01:26;;;;;;;5.63;5.13;;;19.50;96.90;;;;;;5052626;28;20229;-80
2023/06/04 07:03:52;;;;;;;5.90;5.30;;;19.70;96.50;;;;;;5053239;28;20175;-80
2023/06/04 07:06:17;;;;;;;7.83;4.93;;;19.70;96.70;;;;;;5054778;28;20164;-81
2023/06/04 07:08:43;;;;;;;6.13;5.10;;;19.80;96.40;;;;;;5059791;28;20191;-81
2023/06/04 07:11:12;;;;;;;5.90;5.00;;;19.80;96.50;;;;;;5048328;28;20222;-83
2023/06/04 07:13:39;;;;;;;5.67;5.10;;;19.60;96.60;;;;;;5059722;28;20164;-82
2023/06/04 07:16:05;;;;;;;5.07;4.57;;;19.40;96.20;;;;;;5036107;28;20180;-78
2023/06/04 07:18:30;;;;;;;5.97;5.33;;;19.40;96.20;;;;;;5052928;28;20172;-81
2023/06/04 07:20:56;;;;;;;5.27;4.70;;;19.50;95.80;;;;;;5053425;28;20175;-78
2023/06/04 07:23:22;;;;;;;5.10;4.60;;;19.50;96.00;;;;;;5054083;28;20676;-81
2023/06/04 07:25:48;;;;;;;4.97;4.60;;;19.70;96.10;;;;;;5053944;28;20258;-77
2023/06/04 07:28:13;;;;;;;4.67;4.27;;;19.70;96.00;;;;;;5038124;28;20207;-80
2023/06/04 07:30:39;;;;;;;4.60;4.30;;;19.70;95.40;;;;;;5053422;28;20214;-77
2023/06/04 07:33:06;;;;;;;4.83;4.33;;;19.60;95.40;;;;;;5054391;28;20172;-78
2023/06/04 07:35:32;;;;;;;4.33;4.03;;;19.80;95.90;;;;;;5037322;28;20559;-82
2023/06/04 07:37:57;;;;;;;5.10;4.60;;;20.00;96.30;;;;;;5055371;28;20176;-81
2023/06/04 07:40:23;;;;;;;4.50;4.10;;;20.20;96.60;;;;;;5054854;28;20658;-82
2023/06/04 07:42:49;;;;;;;5.50;4.30;;;20.20;96.00;;;;;;5056097;28;20734;-81
2023/06/04 07:45:15;;;;;;;5.93;5.33;;;20.30;95.50;;;;;;5056908;28;20697;-81
2023/06/04 07:47:42;;;;;;;4.63;4.23;;;20.40;95.60;;;;;;5054384;28;20263;-81
2023/06/04 07:50:08;;;;;;;4.60;4.20;;;20.60;95.40;;;;;;5053203;28;20211;-81
2023/06/04 07:52:34;;;;;;;6.73;4.77;;;20.90;95.70;;;;;;5053625;28;20209;-84
2023/06/04 07:55:01;;;;;;;5.93;3.90;;;21.20;96.00;;;;;;5055019;28;20178;-81
2023/06/04 07:57:27;;;;;;;4.73;4.27;;;21.40;95.60;;;;;;5053054;28;20238;-80
2023/06/04 07:59:52;;;;;;;4.60;4.30;;;21.50;95.40;;;;;;5037833;28;20637;-81
2023/06/04 08:02:19;;;;;;;4.63;4.23;;;21.60;95.40;;;;;;5054579;28;20168;-81
2023/06/04 08:04:46;;;;;;;4.87;4.33;;;21.80;95.50;;;;;;5052882;28;20566;-81
2023/06/04 08:07:12;;;;;;;4.23;3.83;;;21.90;95.30;;;;;;5034181;28;20176;-78
2023/06/04 08:09:38;;;;;;;4.30;3.90;;;21.80;95.60;;;;;;5053138;28;20648;-81
2023/06/04 08:12:04;;;;;;;4.37;4.07;;;21.60;95.60;;;;;;5052532;28;20298;-80
2023/06/04 08:14:31;;;;;;;4.73;4.33;;;21.80;96.10;;;;;;5052275;28;20164;-81
2023/06/04 08:16:57;;;;;;;4.57;4.13;;;21.80;95.70;;;;;;5052921;28;20168;-79
2023/06/04 08:19:24;;;;;;;4.40;4.00;;;21.90;95.40;;;;;;5051651;28;20199;-80
2023/06/04 08:21:50;;;;;;;4.70;4.10;;;21.70;94.90;;;;;;5052247;28;20203;-80
2023/06/04 08:24:16;;;;;;;3.77;3.47;;;21.60;95.10;;;;;;5052703;28;20699;-82
2023/06/04 08:26:42;;;;;;;4.30;3.95;;;21.70;94.60;;;;;;5053389;28;20172;-82
2023/06/04 08:29:08;;;;;;;6.63;3.77;;;21.80;95.40;;;;;;5057852;28;20172;-80
2023/06/04 08:31:33;;;;;;;4.77;4.00;;;21.60;95.10;;;;;;5057267;28;20670;-79
2023/06/04 08:33:59;;;;;;;5.00;4.60;;;21.60;95.10;;;;;;5060076;28;20180;-80
2023/06/04 08:36:26;;;;;;;4.10;3.70;;;21.70;95.30;;;;;;5057883;28;20531;-82
2023/06/04 08:38:53;;;;;;;5.35;4.85;;;21.90;94.90;;;;;;5057148;28;20581;-81
2023/06/04 08:41:30;;;;;;;4.20;3.87;;;21.80;94.90;;;;;;5058807;28;20172;-80
2023/06/04 08:43:57;;;;;;;4.73;4.33;;;21.90;94.80;;;;;;5056872;28;20167;-80
2023/06/04 08:46:23;;;;;;;5.03;4.55;;;21.90;93.80;;;;;;5056452;28;20164;-82
2023/06/04 08:48:50;;;;;;;4.60;4.20;;;22.10;93.70;;;;;;5055665;28;20236;-81
2023/06/04 08:51:17;;;;;;;4.80;4.32;;;22.30;94.20;;;;;;5055409;28;20192;-82
2023/06/04 08:53:43;;;;;;;4.70;4.27;;;22.30;93.60;;;;;;5055923;28;20172;-81
2023/06/04 08:56:09;;;;;;;4.53;4.13;;;22.30;93.60;;;;;;5055661;28;20585;-80
2023/06/04 08:58:40;;;;;;;4.63;4.13;;;21.90;93.70;;;;;;5056110;28;20654;-81
2023/06/04 09:01:06;;;;;;;5.87;4.27;;;21.60;93.80;;;;;;5054257;28;20160;-81
2023/06/04 09:03:32;;;;;;;4.80;4.50;;;21.70;93.90;;;;;;5054597;28;20557;-81
2023/06/04 09:05:59;;;;;;;5.50;5.00;;;21.50;94.20;;;;;;5055770;28;20192;-82
2023/06/04 09:08:27;;;;;;;5.20;4.70;;;21.60;94.70;;;;;;5059141;28;20175;-81
2023/06/04 09:10:55;;;;;;;4.87;4.47;;;21.80;94.60;;;;;;5043325;28;20636;-79
2023/06/04 09:13:27;;;;;;;6.55;5.70;;;22.00;94.30;;;;;;5054766;28;20176;-81
2023/06/04 09:16:03;;;;;;;7.60;6.17;;;22.40;94.50;;;;;;5054422;28;20156;-81
2023/06/04 09:18:29;;;;;;;5.47;4.50;;;22.60;94.10;;;;;;5054208;28;20263;-81
2023/06/04 09:21:08;;;;;;;4.82;4.25;;;22.60;94.30;;;;;;5054329;28;20222;-84
2023/06/04 09:23:44;;;;;;;4.65;4.22;;;22.60;94.50;;;;;;5054980;28;20225;-82
2023/06/04 09:26:10;;;;;;;4.97;4.57;;;22.90;93.80;;;;;;5054632;28;20232;-80
2023/06/04 09:28:43;;;;;;;4.70;3.95;;;23.10;93.60;;;;;;5055109;28;20715;-81
2023/06/04 09:31:10;;;;;;;4.60;4.13;;;23.00;93.20;;;;;;5043354;28;20279;-81
2023/06/04 09:33:44;;;;;;;3.78;3.47;;;23.00;93.00;;;;;;5078486;28;20191;-79
2023/06/04 09:36:10;;;;;;;4.95;4.32;;;22.60;93.30;;;;;;5061494;28;20243;-80
2023/06/04 09:38:36;;;;;;;4.68;4.28;;;22.60;94.10;;;;;;5059776;28;20207;-80
2023/06/04 09:41:06;;;;;;;4.45;4.15;;;22.80;94.00;;;;;;5072277;28;20270;-80
2023/06/04 09:43:33;;;;;;;4.30;3.90;;;22.90;93.50;;;;;;5079109;28;20153;-81
2023/06/04 09:46:14;;;;;;;4.45;4.15;;;22.90;93.20;;;;;;5059621;28;20630;-81
2023/06/04 09:48:40;;;;;;;4.55;4.20;;;22.90;93.50;;;;;;5055278;28;20211;-78
2023/06/04 09:51:18;;;;;;;4.15;3.85;;;22.60;93.20;;;;;;5055826;28;20950;-79
2023/06/04 09:53:57;;;;;;;5.30;3.95;;;22.30;93.30;;;;;;5055292;28;20218;-79
2023/06/04 09:56:22;;;;;;;5.22;4.10;;;22.30;93.80;;;;;;5054919;28;20164;-80
2023/06/04 09:58:50;;;;;;;4.20;3.85;;;22.40;93.90;;;;;;5053863;28;20175;-81
2023/06/04 10:01:16;;;;;;;5.28;4.07;;;22.40;93.50;;;;;;5053152;28;20286;-82
2023/06/04 10:03:48;;;;;;;4.75;4.13;;;22.40;93.80;;;;;;5053443;28;20172;-80
2023/06/04 10:06:18;;;;;;;5.90;4.10;;;22.40;94.20;;;;;;5053907;28;20647;-78
2023/06/04 10:08:45;;;;;;;4.55;4.15;;;22.80;94.40;;;;;;5053646;28;20233;-80
2023/06/04 10:11:13;;;;;;;4.78;4.40;;;23.10;93.90;;;;;;5052962;28;20195;-81
2023/06/04 10:13:48;;;;;;;4.43;3.90;;;23.30;93.70;;;;;;5053235;28;20187;-81
2023/06/04 10:16:14;;;;;;;5.50;4.75;;;23.50;93.50;;;;;;5053311;28;20167;-83
2023/06/04 10:18:41;;;;;;;4.90;4.38;;;23.70;94.00;;;;;;5053207;28;20527;-81
2023/06/04 10:21:08;;;;;;;4.93;4.43;;;23.60;92.90;;;;;;5052834;28;20168;-82
2023/06/04 10:23:34;;;;;;;4.28;3.97;;;23.50;92.90;;;;;;5052733;28;20172;-80
2023/06/04 10:26:01;;;;;;;4.88;4.45;;;23.60;92.80;;;;;;5053039;28;20179;-79
2023/06/04 10:28:28;;;;;;;5.90;4.65;;;23.70;93.00;;;;;;5052828;28;20175;-80
2023/06/04 10:30:53;;;;;;;4.25;3.95;;;23.80;93.20;;;;;;5053428;28;20373;-78
2023/06/04 10:33:23;;;;;;;4.88;4.35;;;25.20;93.80;;;;;;5036121;28;20279;-79
2023/06/04 10:35:50;;;;;;;5.25;4.75;;;23.90;92.80;;;;;;5034705;28;20237;-80
2023/06/04 10:38:18;;;;;;;5.10;4.60;;;23.90;92.60;;;;;;5052389;28;20267;-79
2023/06/04 10:40:44;;;;;;;4.40;4.10;;;23.80;92.70;;;;;;5052687;28;20215;-80
2023/06/04 10:43:11;;;;;;;4.50;4.20;;;23.70;92.60;;;;;;5034744;28;20621;-82
2023/06/04 10:45:38;;;;;;;4.60;4.25;;;23.40;92.50;;;;;;5034504;28;20508;-80
2023/06/04 10:48:08;;;;;;;4.60;4.15;;;23.10;93.20;;;;;;5052099;28;20191;-81
2023/06/04 10:50:35;;;;;;;5.18;4.35;;;23.30;93.50;;;;;;5052654;28;20156;-81
2023/06/04 10:53:05;;;;;;;5.75;4.28;;;23.10;93.60;;;;;;5052481;28;20721;-81
2023/06/04 10:55:31;;;;;;;4.63;4.32;;;23.10;93.90;;;;;;5052312;28;20186;-82
2023/06/04 10:57:57;;;;;;;5.55;4.95;;;23.40;93.60;;;;;;5034198;28;20179;-80
2023/06/04 11:00:35;;;;;;;4.78;4.20;;;23.50;93.80;;;;;;5052573;28;20164;-81
2023/06/04 11:03:01;;;;;;;4.93;4.30;;;23.60;93.50;;;;;;5052626;28;20158;-80
2023/06/04 11:05:37;;;;;;;4.60;4.30;;;23.50;93.20;;;;;;5052325;28;20229;-80
2023/06/04 11:08:05;;;;;;;6.90;4.40;;;23.60;93.80;;;;;;5052546;28;20171;-81
2023/06/04 11:10:36;;;;;;;5.50;5.00;;;23.60;94.50;;;;;;5054452;28;20202;-82
2023/06/04 11:13:03;;;;;;;4.93;4.55;;;23.60;93.80;;;;;;5058808;28;20164;-80
2023/06/04 11:15:42;;;;;;;5.60;4.25;;;23.60;93.80;;;;;;5057370;28;20171;-80
2023/06/04 11:18:08;;;;;;;5.80;5.30;;;23.70;93.50;;;;;;5052506;28;20168;-82
2023/06/04 11:20:34;;;;;;;5.70;5.18;;;23.70;93.60;;;;;;5052187;28;20624;-81
2023/06/04 11:23:02;;;;;;;4.72;4.32;;;23.80;93.30;;;;;;5052255;28;20176;-82
2023/06/04 11:25:30;;;;;;;5.18;4.68;;;23.90;93.60;;;;;;5057021;28;20167;-81
2023/06/04 11:27:57;;;;;;;7.63;5.32;;;23.80;93.50;;;;;;5034829;28;20172;-81
2023/06/04 11:30:24;;;;;;;6.22;5.63;;;23.70;93.70;;;;;;5054670;28;20167;-83
2023/06/04 11:32:50;;;;;;;5.88;5.40;;;23.90;93.80;;;;;;5055267;28;20203;-80
2023/06/04 11:35:19;;;;;;;5.60;5.10;;;24.00;93.70;;;;;;5055734;28;20658;-83
2023/06/04 11:37:55;;;;;;;5.53;5.13;;;23.90;93.80;;;;;;5037356;28;20194;-81
2023/06/04 11:40:21;;;;;;;5.35;4.95;;;23.70;93.90;;;;;;5053828;28;20695;-80
2023/06/04 11:42:48;;;;;;;4.93;4.57;;;23.80;94.30;;;;;;5054761;28;20256;-80
2023/06/04 11:45:18;;;;;;;5.40;4.95;;;23.70;94.00;;;;;;5055102;28;20164;-81
2023/06/04 11:47:48;;;;;;;5.57;4.88;;;23.60;94.10;;;;;;5052777;28;20164;-77
2023/06/04 11:50:14;;;;;;;4.65;4.32;;;23.50;94.10;;;;;;5051840;28;20216;-81
2023/06/04 11:52:41;;;;;;;5.22;4.82;;;23.50;93.90;;;;;;5052590;28;20215;-81
2023/06/04 11:55:11;;;;;;;5.00;4.60;;;23.30;93.70;;;;;;5052163;28;20172;-81
2023/06/04 11:57:39;;;;;;;4.95;4.55;;;23.40;94.30;;;;;;5052410;28;20176;-81
2023/06/04 12:00:09;;;;;;;7.25;6.55;;;23.60;94.20;;;;;;5052329;28;20189;-83
2023/06/04 12:02:38;;;;;;;6.38;5.00;;;23.80;94.00;;;;;;5054634;28;20647;-80
2023/06/04 12:05:14;;;;;;;5.25;4.80;;;24.10;94.10;;;;;;5056241;28;20286;-81
2023/06/04 12:07:41;;;;;;;5.85;5.15;;;24.30;94.00;;;;;;5056708;28;20179;-79
2023/06/04 12:10:17;;;;;;;5.15;4.65;;;24.50;93.60;;;;;;5056642;28;20175;-78
2023/06/04 12:12:43;;;;;;;5.25;4.80;;;24.40;93.50;;;;;;5040737;28;20286;-81
2023/06/04 12:15:09;;;;;;;5.55;5.15;;;24.30;93.60;;;;;;5039130;28;20172;-80
2023/06/04 12:17:37;;;;;;;5.40;4.97;;;24.30;94.30;;;;;;5060436;28;20505;-81
2023/06/04 12:20:05;;;;;;;6.50;5.20;;;24.20;94.10;;;;;;5059502;28;20168;-80
2023/06/04 12:22:31;;;;;;;8.38;5.50;;;24.00;94.00;;;;;;5057559;28;20681;-81
2023/06/04 12:25:00;;;;;;;5.20;4.70;;;24.00;94.30;;;;;;5039660;28;20180;-84
2023/06/04 12:27:27;;;;;;;5.63;5.15;;;23.90;94.00;;;;;;5059022;28;20206;-82
2023/06/04 12:30:01;;;;;;;5.22;4.82;;;23.90;94.70;;;;;;5059652;28;20184;-80
2023/06/04 12:32:27;;;;;;;6.32;5.82;;;23.80;94.90;;;;;;5056923;28;20667;-81
2023/06/04 12:34:53;;;;;;;5.40;5.00;;;23.60;94.50;;;;;;5055634;28;20172;-81
2023/06/04 12:37:25;;;;;;;5.20;4.75;;;23.50;94.80;;;;;;5057155;28;20247;-84
2023/06/04 12:39:51;;;;;;;6.55;5.90;;;23.40;94.90;;;;;;5058500;28;20247;-80
2023/06/04 12:42:18;;;;;;;5.72;5.22;;;23.20;95.00;;;;;;5056776;28;20727;-81
2023/06/04 12:44:44;;;;;;;5.85;5.25;;;23.00;94.90;;;;;;5054741;28;20770;-82
2023/06/04 12:47:11;;;;;;;5.15;4.78;;;22.90;95.00;;;;;;5058672;28;20635;-81
2023/06/04 12:49:37;;;;;;;5.40;4.97;;;22.80;95.30;;;;;;5057146;28;20212;-80